sensor_id;sensor_type;location;lat;lon;timestamp;pressure;altitude;pressure_sealevel;temperature;humidity
38616;BME280;24370;51.986;4.666;2023-05-20T00:00:02;102600.91;;;22.48;36.37
38616;BME280;24370;51.986;4.666;2023-05-20T00:02:28;102604.00;;;21.42;38.37
38616;BME280;24370;51.986;4.666;2023-05-20T00:04:53;102609.63;;;21.32;38.77
38616;BME280;24370;51.986;4.666;2023-05-20T00:07:19;102607.53;;;22.63;36.29
38616;BME280;24370;51.986;4.666;2023-05-20T00:09:44;102614.22;;;21.90;37.47
38616;BME280;24370;51.986;4.666;2023-05-20T00:12:10;102607.00;;;21.94;37.50
38616;BME280;24370;51.986;4.666;2023-05-20T00:14:35;102606.66;;;21.43;37.98
38616;BME280;24370;51.986;4.666;2023-05-20T00:17:00;102607.56;;;21.09;38.04
38616;BME280;24370;51.986;4.666;2023-05-20T00:19:26;102614.28;;;21.57;38.12
38616;BME280;24370;51.986;4.666;2023-05-20T00:21:51;102606.72;;;21.73;38.04
38616;BME280;24370;51.986;4.666;2023-05-20T00:24:17;102602.88;;;22.13;36.88
38616;BME280;24370;51.986;4.666;2023-05-20T00:26:42;102607.50;;;21.77;37.66
38616;BME280;24370;51.986;4.666;2023-05-20T00:29:07;102608.69;;;21.66;38.06
38616;BME280;24370;51.986;4.666;2023-05-20T00:31:33;102603.53;;;22.20;37.07
38616;BME280;24370;51.986;4.666;2023-05-20T00:33:58;102603.19;;;20.72;39.53
38616;BME280;24370;51.986;4.666;2023-05-20T00:36:23;102599.03;;;21.62;38.00
38616;BME280;24370;51.986;4.666;2023-05-20T00:38:49;102593.03;;;21.85;37.37
38616;BME280;24370;51.986;4.666;2023-05-20T00:41:14;102599.78;;;22.27;36.94
38616;BME280;24370;51.986;4.666;2023-05-20T00:43:40;102600.06;;;21.24;38.56
38616;BME280;24370;51.986;4.666;2023-05-20T00:46:06;102596.78;;;22.10;37.13
38616;BME280;24370;51.986;4.666;2023-05-20T00:48:38;102601.69;;;21.94;37.58
38616;BME280;24370;51.986;4.666;2023-05-20T00:51:04;102598.09;;;21.95;37.36
38616;BME280;24370;51.986;4.666;2023-05-20T00:53:31;102597.47;;;20.88;39.46
38616;BME280;24370;51.986;4.666;2023-05-20T00:55:58;102591.75;;;21.36;38.20
38616;BME280;24370;51.986;4.666;2023-05-20T00:58:23;102596.59;;;21.22;38.88
38616;BME280;24370;51.986;4.666;2023-05-20T01:00:49;102582.44;;;21.84;37.51
38616;BME280;24370;51.986;4.666;2023-05-20T01:03:14;102588.91;;;21.11;38.90
38616;BME280;24370;51.986;4.666;2023-05-20T01:05:40;102584.16;;;21.86;37.35
38616;BME280;24370;51.986;4.666;2023-05-20T01:08:06;102579.41;;;21.33;38.61
38616;BME280;24370;51.986;4.666;2023-05-20T01:10:32;102576.78;;;21.65;37.59
38616;BME280;24370;51.986;4.666;2023-05-20T01:13:03;102578.41;;;19.95;40.58
38616;BME280;24370;51.986;4.666;2023-05-20T01:15:32;102581.06;;;21.06;38.59
38616;BME280;24370;51.986;4.666;2023-05-20T01:18:00;102576.00;;;21.30;38.64
38616;BME280;24370;51.986;4.666;2023-05-20T01:20:30;102580.53;;;20.56;39.66
38616;BME280;24370;51.986;4.666;2023-05-20T01:22:56;102577.09;;;21.23;37.68
38616;BME280;24370;51.986;4.666;2023-05-20T01:25:23;102567.03;;;21.65;37.66
38616;BME280;24370;51.986;4.666;2023-05-20T01:27:53;102573.25;;;20.28;39.66
38616;BME280;24370;51.986;4.666;2023-05-20T01:30:20;102562.19;;;20.82;39.40
38616;BME280;24370;51.986;4.666;2023-05-20T01:32:56;102569.16;;;20.87;39.02
38616;BME280;24370;51.986;4.666;2023-05-20T01:35:22;102560.94;;;21.29;38.51
38616;BME280;24370;51.986;4.666;2023-05-20T01:37:49;102565.44;;;20.94;39.13
38616;BME280;24370;51.986;4.666;2023-05-20T01:40:17;102557.38;;;21.30;38.66
38616;BME280;24370;51.986;4.666;2023-05-20T01:42:43;102559.63;;;21.12;38.84
38616;BME280;24370;51.986;4.666;2023-05-20T01:45:10;102556.94;;;21.45;38.33
38616;BME280;24370;51.986;4.666;2023-05-20T01:47:36;102554.25;;;21.78;37.73
38616;BME280;24370;51.986;4.666;2023-05-20T01:50:01;102557.34;;;20.62;39.38
38616;BME280;24370;51.986;4.666;2023-05-20T01:52:27;102556.28;;;22.27;36.93
38616;BME280;24370;51.986;4.666;2023-05-20T01:54:52;102547.09;;;21.17;38.89
38616;BME280;24370;51.986;4.666;2023-05-20T01:57:19;102553.72;;;21.34;38.97
38616;BME280;24370;51.986;4.666;2023-05-20T01:59:45;102554.19;;;20.46;40.03
38616;BME280;24370;51.986;4.666;2023-05-20T02:02:10;102548.16;;;21.43;39.00
38616;BME280;24370;51.986;4.666;2023-05-20T02:04:36;102556.81;;;20.86;39.95
38616;BME280;24370;51.986;4.666;2023-05-20T02:07:01;102549.97;;;20.75;39.73
38616;BME280;24370;51.986;4.666;2023-05-20T02:09:27;102547.63;;;21.62;38.03
38616;BME280;24370;51.986;4.666;2023-05-20T02:11:52;102549.28;;;21.01;39.25
38616;BME280;24370;51.986;4.666;2023-05-20T02:14:18;102546.75;;;21.30;38.99
38616;BME280;24370;51.986;4.666;2023-05-20T02:16:45;102545.88;;;21.61;38.22
38616;BME280;24370;51.986;4.666;2023-05-20T02:19:10;102550.13;;;21.66;38.52
38616;BME280;24370;51.986;4.666;2023-05-20T02:21:38;102550.16;;;21.02;39.69
38616;BME280;24370;51.986;4.666;2023-05-20T02:24:04;102557.03;;;21.42;38.89
38616;BME280;24370;51.986;4.666;2023-05-20T02:26:30;102549.38;;;21.63;38.24
38616;BME280;24370;51.986;4.666;2023-05-20T02:28:56;102553.78;;;20.99;39.40
38616;BME280;24370;51.986;4.666;2023-05-20T02:31:21;102552.03;;;21.63;38.76
38616;BME280;24370;51.986;4.666;2023-05-20T02:33:47;102549.63;;;21.54;38.31
38616;BME280;24370;51.986;4.666;2023-05-20T02:36:12;102547.41;;;21.38;38.77
38616;BME280;24370;51.986;4.666;2023-05-20T02:38:37;102545.53;;;21.10;39.09
38616;BME280;24370;51.986;4.666;2023-05-20T02:41:06;102548.94;;;20.81;39.74
38616;BME280;24370;51.986;4.666;2023-05-20T02:43:32;102536.94;;;20.99;39.42
38616;BME280;24370;51.986;4.666;2023-05-20T02:45:57;102539.53;;;20.30;41.48
38616;BME280;24370;51.986;4.666;2023-05-20T02:48:23;102546.78;;;20.59;40.04
38616;BME280;24370;51.986;4.666;2023-05-20T02:50:48;102539.63;;;20.27;40.66
38616;BME280;24370;51.986;4.666;2023-05-20T02:53:14;102538.72;;;20.26;41.62
38616;BME280;24370;51.986;4.666;2023-05-20T02:55:39;102536.63;;;20.77;40.08
38616;BME280;24370;51.986;4.666;2023-05-20T02:58:05;102533.69;;;20.88;39.95
38616;BME280;24370;51.986;4.666;2023-05-20T03:00:30;102538.44;;;21.09;39.52
38616;BME280;24370;51.986;4.666;2023-05-20T03:02:56;102539.94;;;20.87;39.62
38616;BME280;24370;51.986;4.666;2023-05-20T03:05:23;102536.06;;;19.89;42.05
38616;BME280;24370;51.986;4.666;2023-05-20T03:07:48;102534.53;;;20.54;40.42
38616;BME280;24370;51.986;4.666;2023-05-20T03:10:14;102534.91;;;20.38;40.81
38616;BME280;24370;51.986;4.666;2023-05-20T03:12:40;102541.56;;;20.20;40.94
38616;BME280;24370;51.986;4.666;2023-05-20T03:15:06;102540.19;;;21.10;39.63
38616;BME280;24370;51.986;4.666;2023-05-20T03:17:31;102543.63;;;19.65;42.02
38616;BME280;24370;51.986;4.666;2023-05-20T03:19:57;102542.19;;;19.92;42.11
38616;BME280;24370;51.986;4.666;2023-05-20T03:22:23;102542.81;;;19.61;42.43
38616;BME280;24370;51.986;4.666;2023-05-20T03:24:48;102537.63;;;20.37;40.88
38616;BME280;24370;51.986;4.666;2023-05-20T03:27:13;102546.19;;;20.10;41.90
38616;BME280;24370;51.986;4.666;2023-05-20T03:29:39;102541.88;;;20.06;41.49
38616;BME280;24370;51.986;4.666;2023-05-20T03:32:05;102540.31;;;20.35;41.32
38616;BME280;24370;51.986;4.666;2023-05-20T03:34:31;102547.25;;;19.61;42.72
38616;BME280;24370;51.986;4.666;2023-05-20T03:36:56;102543.22;;;19.85;41.96
38616;BME280;24370;51.986;4.666;2023-05-20T03:39:21;102540.06;;;20.46;40.98
38616;BME280;24370;51.986;4.666;2023-05-20T03:41:47;102544.72;;;19.97;41.93
38616;BME280;24370;51.986;4.666;2023-05-20T03:44:12;102537.63;;;19.99;42.33
38616;BME280;24370;51.986;4.666;2023-05-20T03:46:38;102540.44;;;20.29;41.58
38616;BME280;24370;51.986;4.666;2023-05-20T03:49:04;102537.66;;;19.96;42.00
38616;BME280;24370;51.986;4.666;2023-05-20T03:51:30;102534.38;;;19.85;42.78
38616;BME280;24370;51.986;4.666;2023-05-20T03:53:55;102531.66;;;20.27;41.64
38616;BME280;24370;51.986;4.666;2023-05-20T03:56:21;102535.59;;;20.82;40.20
38616;BME280;24370;51.986;4.666;2023-05-20T03:58:46;102542.56;;;20.14;41.83
38616;BME280;24370;51.986;4.666;2023-05-20T04:01:12;102532.44;;;20.68;40.69
38616;BME280;24370;51.986;4.666;2023-05-20T04:03:39;102527.25;;;20.62;40.93
38616;BME280;24370;51.986;4.666;2023-05-20T04:06:06;102525.16;;;20.76;40.25
38616;BME280;24370;51.986;4.666;2023-05-20T04:08:31;102522.00;;;20.95;40.33
38616;BME280;24370;51.986;4.666;2023-05-20T04:10:57;102523.06;;;20.88;40.27
38616;BME280;24370;51.986;4.666;2023-05-20T04:13:26;102533.53;;;20.22;41.53
38616;BME280;24370;51.986;4.666;2023-05-20T04:15:51;102534.59;;;20.87;40.33
38616;BME280;24370;51.986;4.666;2023-05-20T04:18:17;102534.78;;;20.44;40.99
38616;BME280;24370;51.986;4.666;2023-05-20T04:20:42;102536.03;;;19.90;41.97
38616;BME280;24370;51.986;4.666;2023-05-20T04:23:09;102536.00;;;19.92;42.04
38616;BME280;24370;51.986;4.666;2023-05-20T04:25:34;102534.50;;;19.78;42.86
38616;BME280;24370;51.986;4.666;2023-05-20T04:28:00;102538.16;;;19.71;42.76
38616;BME280;24370;51.986;4.666;2023-05-20T04:30:26;102539.94;;;19.72;43.11
38616;BME280;24370;51.986;4.666;2023-05-20T04:32:51;102540.59;;;20.23;41.91
38616;BME280;24370;51.986;4.666;2023-05-20T04:35:18;102530.16;;;20.53;41.42
38616;BME280;24370;51.986;4.666;2023-05-20T04:37:43;102535.88;;;20.73;40.44
38616;BME280;24370;51.986;4.666;2023-05-20T04:40:12;102538.69;;;21.00;40.34
38616;BME280;24370;51.986;4.666;2023-05-20T04:42:38;102542.56;;;21.52;39.79
38616;BME280;24370;51.986;4.666;2023-05-20T04:45:04;102552.28;;;19.73;43.38
38616;BME280;24370;51.986;4.666;2023-05-20T04:47:30;102542.59;;;21.51;39.29
38616;BME280;24370;51.986;4.666;2023-05-20T04:49:56;102545.84;;;21.31;39.75
38616;BME280;24370;51.986;4.666;2023-05-20T04:52:25;102546.00;;;20.92;40.73
38616;BME280;24370;51.986;4.666;2023-05-20T04:54:51;102545.34;;;21.16;40.42
38616;BME280;24370;51.986;4.666;2023-05-20T04:57:17;102543.34;;;21.25;40.07
38616;BME280;24370;51.986;4.666;2023-05-20T04:59:48;102542.94;;;22.00;38.54
38616;BME280;24370;51.986;4.666;2023-05-20T05:02:13;102540.56;;;22.19;38.55
38616;BME280;24370;51.986;4.666;2023-05-20T05:04:39;102538.69;;;20.65;40.54
38616;BME280;24370;51.986;4.666;2023-05-20T05:07:04;102536.03;;;20.65;40.91
38616;BME280;24370;51.986;4.666;2023-05-20T05:09:30;102534.69;;;21.16;40.54
38616;BME280;24370;51.986;4.666;2023-05-20T05:11:55;102531.66;;;20.97;40.46
38616;BME280;24370;51.986;4.666;2023-05-20T05:14:21;102530.34;;;20.45;41.75
38616;BME280;24370;51.986;4.666;2023-05-20T05:16:48;102530.88;;;21.27;40.48
38616;BME280;24370;51.986;4.666;2023-05-20T05:19:13;102529.72;;;22.53;38.12
38616;BME280;24370;51.986;4.666;2023-05-20T05:21:38;102529.13;;;22.15;38.44
38616;BME280;24370;51.986;4.666;2023-05-20T05:24:04;102524.13;;;22.33;38.22
38616;BME280;24370;51.986;4.666;2023-05-20T05:26:29;102523.25;;;22.32;38.28
38616;BME280;24370;51.986;4.666;2023-05-20T05:28:55;102528.69;;;21.41;39.53
38616;BME280;24370;51.986;4.666;2023-05-20T05:31:20;102513.13;;;21.89;38.77
38616;BME280;24370;51.986;4.666;2023-05-20T05:33:46;102522.16;;;22.11;38.12
38616;BME280;24370;51.986;4.666;2023-05-20T05:36:11;102522.75;;;22.75;37.95
38616;BME280;24370;51.986;4.666;2023-05-20T05:38:37;102524.44;;;21.95;38.67
38616;BME280;24370;51.986;4.666;2023-05-20T05:41:02;102527.59;;;21.48;39.51
38616;BME280;24370;51.986;4.666;2023-05-20T05:43:27;102522.00;;;22.44;38.69
38616;BME280;24370;51.986;4.666;2023-05-20T05:45:53;102523.31;;;22.84;37.56
38616;BME280;24370;51.986;4.666;2023-05-20T05:48:18;102515.09;;;22.91;37.69
38616;BME280;24370;51.986;4.666;2023-05-20T05:50:44;102515.31;;;22.31;38.36
38616;BME280;24370;51.986;4.666;2023-05-20T05:53:10;102517.44;;;21.93;39.20
38616;BME280;24370;51.986;4.666;2023-05-20T05:55:36;102521.69;;;21.98;39.01
38616;BME280;24370;51.986;4.666;2023-05-20T05:58:01;102521.81;;;22.50;37.70
38616;BME280;24370;51.986;4.666;2023-05-20T06:00:26;102511.56;;;21.81;39.00
38616;BME280;24370;51.986;4.666;2023-05-20T06:02:52;102526.19;;;22.51;38.51
38616;BME280;24370;51.986;4.666;2023-05-20T06:05:17;102527.22;;;21.31;40.65
38616;BME280;24370;51.986;4.666;2023-05-20T06:07:43;102527.16;;;22.22;38.91
38616;BME280;24370;51.986;4.666;2023-05-20T06:10:08;102518.34;;;21.92;39.74
38616;BME280;24370;51.986;4.666;2023-05-20T06:12:34;102512.22;;;22.45;38.66
38616;BME280;24370;51.986;4.666;2023-05-20T06:15:00;102519.63;;;21.78;39.71
38616;BME280;24370;51.986;4.666;2023-05-20T06:17:25;102522.56;;;22.27;39.45
38616;BME280;24370;51.986;4.666;2023-05-20T06:19:51;102527.28;;;22.73;38.17
38616;BME280;24370;51.986;4.666;2023-05-20T06:22:16;102520.63;;;22.31;38.86
38616;BME280;24370;51.986;4.666;2023-05-20T06:24:42;102515.63;;;22.22;38.68
38616;BME280;24370;51.986;4.666;2023-05-20T06:27:07;102511.00;;;23.78;35.96
38616;BME280;24370;51.986;4.666;2023-05-20T06:29:32;102502.41;;;25.59;34.41
38616;BME280;24370;51.986;4.666;2023-05-20T06:31:58;102493.53;;;27.67;30.61
38616;BME280;24370;51.986;4.666;2023-05-20T06:34:23;102514.47;;;26.77;30.94
38616;BME280;24370;51.986;4.666;2023-05-20T06:36:49;102512.06;;;27.87;29.60
38616;BME280;24370;51.986;4.666;2023-05-20T06:39:14;102507.44;;;28.37;28.46
38616;BME280;24370;51.986;4.666;2023-05-20T06:41:40;102508.25;;;28.23;29.20
38616;BME280;24370;51.986;4.666;2023-05-20T06:44:06;102501.41;;;29.22;28.24
38616;BME280;24370;51.986;4.666;2023-05-20T06:46:32;102500.50;;;29.65;26.75
38616;BME280;24370;51.986;4.666;2023-05-20T06:48:57;102492.44;;;30.32;26.61
38616;BME280;24370;51.986;4.666;2023-05-20T06:51:23;102502.09;;;28.21;28.43
38616;BME280;24370;51.986;4.666;2023-05-20T06:53:48;102497.63;;;29.68;26.39
38616;BME280;24370;51.986;4.666;2023-05-20T06:56:14;102492.09;;;30.11;26.12
38616;BME280;24370;51.986;4.666;2023-05-20T06:58:39;102496.03;;;29.92;27.07
38616;BME280;24370;51.986;4.666;2023-05-20T07:01:06;102488.22;;;30.15;26.69
38616;BME280;24370;51.986;4.666;2023-05-20T07:03:32;102487.59;;;31.53;25.28
38616;BME280;24370;51.986;4.666;2023-05-20T07:05:57;102490.28;;;29.70;26.27
38616;BME280;24370;51.986;4.666;2023-05-20T07:08:23;102493.91;;;28.53;28.47
38616;BME280;24370;51.986;4.666;2023-05-20T07:10:48;102481.44;;;29.26;26.76
38616;BME280;24370;51.986;4.666;2023-05-20T07:13:13;102486.81;;;30.09;26.31
38616;BME280;24370;51.986;4.666;2023-05-20T07:15:39;102485.38;;;31.58;25.43
38616;BME280;24370;51.986;4.666;2023-05-20T07:18:04;102488.16;;;29.75;26.56
38616;BME280;24370;51.986;4.666;2023-05-20T07:20:30;102483.19;;;32.01;23.92
38616;BME280;24370;51.986;4.666;2023-05-20T07:22:55;102489.22;;;32.28;23.46
38616;BME280;24370;51.986;4.666;2023-05-20T07:25:20;102492.69;;;31.45;24.78
38616;BME280;24370;51.986;4.666;2023-05-20T07:27:46;102485.84;;;30.89;25.66
38616;BME280;24370;51.986;4.666;2023-05-20T07:30:11;102472.59;;;32.22;23.82
38616;BME280;24370;51.986;4.666;2023-05-20T07:32:36;102469.69;;;32.12;24.12
38616;BME280;24370;51.986;4.666;2023-05-20T07:35:02;102477.22;;;31.84;24.15
38616;BME280;24370;51.986;4.666;2023-05-20T07:37:27;102479.69;;;31.50;23.98
38616;BME280;24370;51.986;4.666;2023-05-20T07:39:53;102466.53;;;33.56;22.58
38616;BME280;24370;51.986;4.666;2023-05-20T07:42:18;102468.56;;;34.28;22.34
38616;BME280;24370;51.986;4.666;2023-05-20T07:44:44;102469.84;;;33.59;21.97
38616;BME280;24370;51.986;4.666;2023-05-20T07:47:09;102470.34;;;34.18;22.17
38616;BME280;24370;51.986;4.666;2023-05-20T07:49:35;102467.09;;;35.28;21.80
38616;BME280;24370;51.986;4.666;2023-05-20T07:52:00;102456.28;;;34.66;21.28
38616;BME280;24370;51.986;4.666;2023-05-20T07:54:26;102457.22;;;32.92;23.26
38616;BME280;24370;51.986;4.666;2023-05-20T07:56:51;102455.84;;;33.43;22.35
38616;BME280;24370;51.986;4.666;2023-05-20T07:59:17;102453.88;;;35.14;20.77
38616;BME280;24370;51.986;4.666;2023-05-20T08:01:42;102453.91;;;33.00;21.81
38616;BME280;24370;51.986;4.666;2023-05-20T08:04:08;102457.59;;;34.51;21.72
38616;BME280;24370;51.986;4.666;2023-05-20T08:06:33;102456.50;;;33.79;22.32
38616;BME280;24370;51.986;4.666;2023-05-20T08:09:00;102467.00;;;34.68;22.28
38616;BME280;24370;51.986;4.666;2023-05-20T08:11:26;102461.47;;;33.95;22.13
38616;BME280;24370;51.986;4.666;2023-05-20T08:13:51;102464.94;;;34.60;20.94
38616;BME280;24370;51.986;4.666;2023-05-20T08:16:16;102465.91;;;33.52;21.96
38616;BME280;24370;51.986;4.666;2023-05-20T08:18:42;102465.06;;;34.16;21.49
38616;BME280;24370;51.986;4.666;2023-05-20T08:21:08;102464.84;;;33.87;22.65
38616;BME280;24370;51.986;4.666;2023-05-20T08:23:34;102462.59;;;34.46;21.32
38616;BME280;24370;51.986;4.666;2023-05-20T08:26:00;102462.91;;;34.31;22.39
38616;BME280;24370;51.986;4.666;2023-05-20T08:28:28;102456.25;;;36.46;19.89
38616;BME280;24370;51.986;4.666;2023-05-20T08:30:53;102456.00;;;35.51;20.04
38616;BME280;24370;51.986;4.666;2023-05-20T08:33:19;102456.91;;;36.00;19.56
38616;BME280;24370;51.986;4.666;2023-05-20T08:35:46;102453.09;;;34.19;20.75
38616;BME280;24370;51.986;4.666;2023-05-20T08:38:11;102456.53;;;34.21;20.32
38616;BME280;24370;51.986;4.666;2023-05-20T08:40:37;102442.06;;;34.53;21.15
38616;BME280;24370;51.986;4.666;2023-05-20T08:43:03;102444.50;;;34.56;20.13
38616;BME280;24370;51.986;4.666;2023-05-20T08:45:33;102439.66;;;35.31;18.90
38616;BME280;24370;51.986;4.666;2023-05-20T08:47:59;102433.44;;;35.10;20.35
38616;BME280;24370;51.986;4.666;2023-05-20T08:50:25;102430.00;;;34.77;21.10
38616;BME280;24370;51.986;4.666;2023-05-20T08:52:50;102421.09;;;35.56;19.95
38616;BME280;24370;51.986;4.666;2023-05-20T08:55:21;102426.78;;;35.33;19.66
38616;BME280;24370;51.986;4.666;2023-05-20T08:57:49;102429.53;;;33.98;20.19
38616;BME280;24370;51.986;4.666;2023-05-20T09:00:15;102418.47;;;32.69;21.94
38616;BME280;24370;51.986;4.666;2023-05-20T09:02:42;102408.41;;;35.06;20.12
38616;BME280;24370;51.986;4.666;2023-05-20T09:05:09;102420.81;;;34.58;19.67
38616;BME280;24370;51.986;4.666;2023-05-20T09:07:35;102410.38;;;34.32;19.90
38616;BME280;24370;51.986;4.666;2023-05-20T09:10:00;102411.50;;;33.44;21.52
38616;BME280;24370;51.986;4.666;2023-05-20T09:12:26;102413.03;;;34.54;20.03
38616;BME280;24370;51.986;4.666;2023-05-20T09:14:51;102424.72;;;33.70;19.54
38616;BME280;24370;51.986;4.666;2023-05-20T09:17:17;102418.63;;;34.10;18.64
38616;BME280;24370;51.986;4.666;2023-05-20T09:19:43;102415.56;;;31.41;20.34
38616;BME280;24370;51.986;4.666;2023-05-20T09:22:08;102412.25;;;33.23;19.52
38616;BME280;24370;51.986;4.666;2023-05-20T09:24:34;102419.88;;;32.27;20.88
38616;BME280;24370;51.986;4.666;2023-05-20T09:26:59;102397.84;;;33.34;20.03
38616;BME280;24370;51.986;4.666;2023-05-20T09:29:25;102403.41;;;32.30;20.52
38616;BME280;24370;51.986;4.666;2023-05-20T09:31:51;102395.59;;;32.84;19.63
38616;BME280;24370;51.986;4.666;2023-05-20T09:34:19;102398.16;;;32.05;20.21
38616;BME280;24370;51.986;4.666;2023-05-20T09:36:48;102383.25;;;33.25;19.69
38616;BME280;24370;51.986;4.666;2023-05-20T09:39:18;102389.78;;;33.55;18.87
38616;BME280;24370;51.986;4.666;2023-05-20T09:44:21;102384.28;;;34.20;18.55
38616;BME280;24370;51.986;4.666;2023-05-20T09:46:49;102373.88;;;35.38;18.07
38616;BME280;24370;51.986;4.666;2023-05-20T09:49:15;102383.84;;;33.61;19.14
38616;BME280;24370;51.986;4.666;2023-05-20T09:51:42;102378.22;;;34.59;17.74
38616;BME280;24370;51.986;4.666;2023-05-20T09:54:10;102378.47;;;35.47;16.78
38616;BME280;24370;51.986;4.666;2023-05-20T09:56:36;102369.53;;;35.25;17.96
38616;BME280;24370;51.986;4.666;2023-05-20T09:59:04;102379.38;;;33.72;19.16
38616;BME280;24370;51.986;4.666;2023-05-20T10:01:29;102367.25;;;33.87;18.88
38616;BME280;24370;51.986;4.666;2023-05-20T10:03:55;102367.50;;;33.84;18.49
38616;BME280;24370;51.986;4.666;2023-05-20T10:06:39;102365.09;;;34.33;19.02
38616;BME280;24370;51.986;4.666;2023-05-20T10:11:51;102353.09;;;35.95;17.32
38616;BME280;24370;51.986;4.666;2023-05-20T10:14:54;102358.13;;;33.56;18.63
38616;BME280;24370;51.986;4.666;2023-05-20T10:17:39;102350.56;;;34.75;18.04
38616;BME280;24370;51.986;4.666;2023-05-20T10:20:06;102346.84;;;33.72;17.83
38616;BME280;24370;51.986;4.666;2023-05-20T10:22:37;102363.78;;;33.85;18.27
38616;BME280;24370;51.986;4.666;2023-05-20T10:25:05;102353.69;;;34.80;17.85
38616;BME280;24370;51.986;4.666;2023-05-20T10:27:44;102351.22;;;33.08;18.67
38616;BME280;24370;51.986;4.666;2023-05-20T10:30:18;102346.25;;;32.80;18.45
38616;BME280;24370;51.986;4.666;2023-05-20T10:32:57;102339.22;;;32.67;19.35
38616;BME280;24370;51.986;4.666;2023-05-20T10:35:27;102338.25;;;31.75;19.77
38616;BME280;24370;51.986;4.666;2023-05-20T10:37:54;102344.94;;;30.84;21.15
38616;BME280;24370;51.986;4.666;2023-05-20T10:40:20;102330.06;;;33.13;19.29
38616;BME280;24370;51.986;4.666;2023-05-20T10:42:46;102327.56;;;33.86;19.18
38616;BME280;24370;51.986;4.666;2023-05-20T10:45:25;102329.69;;;33.71;19.08
38616;BME280;24370;51.986;4.666;2023-05-20T10:47:55;102321.28;;;31.85;20.77
38616;BME280;24370;51.986;4.666;2023-05-20T10:50:34;102324.34;;;31.69;20.13
38616;BME280;24370;51.986;4.666;2023-05-20T10:53:04;102327.16;;;31.43;19.78
38616;BME280;24370;51.986;4.666;2023-05-20T10:55:38;102318.00;;;31.81;19.01
38616;BME280;24370;51.986;4.666;2023-05-20T10:58:06;102315.53;;;34.10;18.66
38616;BME280;24370;51.986;4.666;2023-05-20T11:00:35;102302.94;;;33.24;18.00
38616;BME280;24370;51.986;4.666;2023-05-20T11:03:03;102319.00;;;33.70;18.45
38616;BME280;24370;51.986;4.666;2023-05-20T11:05:29;102305.78;;;32.79;19.05
38616;BME280;24370;51.986;4.666;2023-05-20T11:08:02;102306.72;;;31.99;20.42
38616;BME280;24370;51.986;4.666;2023-05-20T11:10:29;102315.03;;;31.73;20.11
38616;BME280;24370;51.986;4.666;2023-05-20T11:12:55;102300.53;;;31.50;19.92
38616;BME280;24370;51.986;4.666;2023-05-20T11:15:21;102311.06;;;31.66;21.03
38616;BME280;24370;51.986;4.666;2023-05-20T11:20:18;102296.88;;;31.86;21.42
38616;BME280;24370;51.986;4.666;2023-05-20T11:22:44;102296.34;;;33.06;20.62
38616;BME280;24370;51.986;4.666;2023-05-20T11:25:09;102293.53;;;31.47;20.71
38616;BME280;24370;51.986;4.666;2023-05-20T11:27:38;102301.75;;;31.70;20.01
38616;BME280;24370;51.986;4.666;2023-05-20T11:30:07;102288.03;;;31.95;20.03
38616;BME280;24370;51.986;4.666;2023-05-20T11:32:32;102293.38;;;31.61;19.44
38616;BME280;24370;51.986;4.666;2023-05-20T11:34:58;102287.31;;;33.49;19.52
38616;BME280;24370;51.986;4.666;2023-05-20T11:37:23;102290.50;;;31.99;19.96
38616;BME280;24370;51.986;4.666;2023-05-20T11:40:04;102279.97;;;30.50;20.65
38616;BME280;24370;51.986;4.666;2023-05-20T11:42:35;102287.97;;;30.26;21.65
38616;BME280;24370;51.986;4.666;2023-05-20T11:45:01;102269.41;;;30.84;20.07
38616;BME280;24370;51.986;4.666;2023-05-20T11:47:27;102273.28;;;31.88;19.30
38616;BME280;24370;51.986;4.666;2023-05-20T11:49:53;102274.41;;;32.08;19.99
38616;BME280;24370;51.986;4.666;2023-05-20T11:52:20;102286.31;;;31.23;20.82
38616;BME280;24370;51.986;4.666;2023-05-20T11:54:51;102274.94;;;31.67;20.37
38616;BME280;24370;51.986;4.666;2023-05-20T11:57:18;102264.38;;;33.00;19.53
38616;BME280;24370;51.986;4.666;2023-05-20T11:59:43;102264.91;;;31.80;20.36
38616;BME280;24370;51.986;4.666;2023-05-20T12:02:08;102265.25;;;31.04;20.94
38616;BME280;24370;51.986;4.666;2023-05-20T12:04:34;102249.41;;;32.61;20.83
38616;BME280;24370;51.986;4.666;2023-05-20T12:06:59;102251.06;;;30.26;21.20
38616;BME280;24370;51.986;4.666;2023-05-20T12:09:25;102253.50;;;31.41;20.41
38616;BME280;24370;51.986;4.666;2023-05-20T12:11:50;102238.38;;;31.74;20.19
38616;BME280;24370;51.986;4.666;2023-05-20T12:14:16;102244.44;;;33.01;19.13
38616;BME280;24370;51.986;4.666;2023-05-20T12:16:41;102244.28;;;32.58;20.04
38616;BME280;24370;51.986;4.666;2023-05-20T12:19:07;102249.59;;;33.36;19.28
38616;BME280;24370;51.986;4.666;2023-05-20T12:21:33;102239.72;;;33.03;19.29
38616;BME280;24370;51.986;4.666;2023-05-20T12:23:58;102245.78;;;32.40;19.99
38616;BME280;24370;51.986;4.666;2023-05-20T12:26:26;102246.25;;;32.00;19.72
38616;BME280;24370;51.986;4.666;2023-05-20T12:28:53;102249.19;;;31.38;20.94
38616;BME280;24370;51.986;4.666;2023-05-20T12:31:19;102246.09;;;31.67;20.62
38616;BME280;24370;51.986;4.666;2023-05-20T12:33:44;102249.13;;;30.54;21.64
38616;BME280;24370;51.986;4.666;2023-05-20T12:36:10;102244.09;;;30.11;21.58
38616;BME280;24370;51.986;4.666;2023-05-20T12:38:35;102254.88;;;29.32;22.12
38616;BME280;24370;51.986;4.666;2023-05-20T12:41:01;102241.91;;;31.27;20.98
38616;BME280;24370;51.986;4.666;2023-05-20T12:43:26;102245.66;;;30.39;22.30
38616;BME280;24370;51.986;4.666;2023-05-20T12:45:52;102233.28;;;30.74;21.55
38616;BME280;24370;51.986;4.666;2023-05-20T12:48:18;102227.66;;;30.77;22.18
38616;BME280;24370;51.986;4.666;2023-05-20T12:50:43;102225.34;;;31.32;21.05
38616;BME280;24370;51.986;4.666;2023-05-20T12:53:08;102228.91;;;31.33;21.38